sensor_id;sensor_type;location;lat;lon;timestamp;P1;durP1;ratioP1;P2;durP2;ratioP2
11646;SDS011;5880;52.342;9.662;2023-07-31T00:00:34;1.67;;;1.10;;
11646;SDS011;5880;52.342;9.662;2023-07-31T00:03:00;1.30;;;1.20;;
11646;SDS011;5880;52.342;9.662;2023-07-31T00:05:25;1.27;;;1.10;;
11646;SDS011;5880;52.342;9.662;2023-07-31T00:07:51;2.30;;;1.10;;
11646;SDS011;5880;52.342;9.662;2023-07-31T00:10:18;1.23;;;1.13;;
11646;SDS011;5880;52.342;9.662;2023-07-31T00:12:44;1.63;;;1.02;;
11646;SDS011;5880;52.342;9.662;2023-07-31T00:15:11;3.10;;;0.95;;
11646;SDS011;5880;52.342;9.662;2023-07-31T00:17:38;1.13;;;0.90;;
11646;SDS011;5880;52.342;9.662;2023-07-31T00:20:04;1.42;;;1.10;;
11646;SDS011;5880;52.342;9.662;2023-07-31T00:22:30;1.50;;;1.05;;
11646;SDS011;5880;52.342;9.662;2023-07-31T00:24:56;1.27;;;0.90;;
11646;SDS011;5880;52.342;9.662;2023-07-31T00:27:22;2.33;;;1.10;;
11646;SDS011;5880;52.342;9.662;2023-07-31T00:29:48;0.75;;;0.75;;
11646;SDS011;5880;52.342;9.662;2023-07-31T00:32:14;1.35;;;0.80;;
11646;SDS011;5880;52.342;9.662;2023-07-31T00:34:39;1.30;;;1.10;;
11646;SDS011;5880;52.342;9.662;2023-07-31T00:37:05;0.75;;;0.75;;
11646;SDS011;5880;52.342;9.662;2023-07-31T00:39:33;1.00;;;0.82;;
11646;SDS011;5880;52.342;9.662;2023-07-31T00:41:59;1.23;;;1.10;;
11646;SDS011;5880;52.342;9.662;2023-07-31T00:44:25;1.10;;;1.00;;
11646;SDS011;5880;52.342;9.662;2023-07-31T00:46:51;1.00;;;0.90;;
11646;SDS011;5880;52.342;9.662;2023-07-31T00:49:18;1.15;;;1.05;;
11646;SDS011;5880;52.342;9.662;2023-07-31T00:51:45;1.35;;;0.65;;
11646;SDS011;5880;52.342;9.662;2023-07-31T00:54:11;1.02;;;0.93;;
11646;SDS011;5880;52.342;9.662;2023-07-31T00:56:37;0.88;;;0.80;;
11646;SDS011;5880;52.342;9.662;2023-07-31T00:59:05;1.40;;;1.08;;
11646;SDS011;5880;52.342;9.662;2023-07-31T01:01:31;0.82;;;0.80;;
11646;SDS011;5880;52.342;9.662;2023-07-31T01:03:56;1.33;;;1.08;;
11646;SDS011;5880;52.342;9.662;2023-07-31T01:12:10;0.70;;;0.70;;
11646;SDS011;5880;52.342;9.662;2023-07-31T01:14:40;1.08;;;0.95;;
11646;SDS011;5880;52.342;9.662;2023-07-31T01:17:16;0.95;;;0.90;;
11646;SDS011;5880;52.342;9.662;2023-07-31T01:19:41;1.00;;;0.90;;
11646;SDS011;5880;52.342;9.662;2023-07-31T01:31:10;1.52;;;0.90;;
11646;SDS011;5880;52.342;9.662;2023-07-31T01:33:43;0.95;;;0.88;;
11646;SDS011;5880;52.342;9.662;2023-07-31T01:36:09;0.60;;;0.60;;
11646;SDS011;5880;52.342;9.662;2023-07-31T01:38:36;0.70;;;0.70;;
11646;SDS011;5880;52.342;9.662;2023-07-31T01:41:02;1.58;;;0.80;;
11646;SDS011;5880;52.342;9.662;2023-07-31T01:43:28;0.82;;;0.80;;
11646;SDS011;5880;52.342;9.662;2023-07-31T01:45:53;1.55;;;0.90;;
11646;SDS011;5880;52.342;9.662;2023-07-31T01:48:19;0.70;;;0.70;;
11646;SDS011;5880;52.342;9.662;2023-07-31T01:50:45;0.80;;;0.70;;
11646;SDS011;5880;52.342;9.662;2023-07-31T01:53:10;1.05;;;0.60;;
11646;SDS011;5880;52.342;9.662;2023-07-31T01:55:38;0.80;;;0.80;;
11646;SDS011;5880;52.342;9.662;2023-07-31T01:58:04;1.10;;;0.70;;
11646;SDS011;5880;52.342;9.662;2023-07-31T02:00:29;0.63;;;0.63;;
11646;SDS011;5880;52.342;9.662;2023-07-31T02:02:55;0.60;;;0.60;;
11646;SDS011;5880;52.342;9.662;2023-07-31T02:05:21;0.80;;;0.68;;
11646;SDS011;5880;52.342;9.662;2023-07-31T02:07:46;1.17;;;0.60;;
11646;SDS011;5880;52.342;9.662;2023-07-31T02:10:12;0.80;;;0.68;;
11646;SDS011;5880;52.342;9.662;2023-07-31T02:12:38;0.95;;;0.85;;
11646;SDS011;5880;52.342;9.662;2023-07-31T02:15:04;1.85;;;0.80;;
11646;SDS011;5880;52.342;9.662;2023-07-31T02:17:30;0.70;;;0.55;;
11646;SDS011;5880;52.342;9.662;2023-07-31T02:19:56;0.70;;;0.70;;
11646;SDS011;5880;52.342;9.662;2023-07-31T02:22:21;0.60;;;0.52;;
11646;SDS011;5880;52.342;9.662;2023-07-31T02:24:47;0.60;;;0.60;;
11646;SDS011;5880;52.342;9.662;2023-07-31T02:27:13;1.65;;;0.70;;
11646;SDS011;5880;52.342;9.662;2023-07-31T02:29:38;1.83;;;0.68;;
11646;SDS011;5880;52.342;9.662;2023-07-31T02:32:04;0.52;;;0.52;;
11646;SDS011;5880;52.342;9.662;2023-07-31T02:34:30;1.15;;;0.80;;
11646;SDS011;5880;52.342;9.662;2023-07-31T02:36:56;0.50;;;0.50;;
11646;SDS011;5880;52.342;9.662;2023-07-31T02:39:21;0.52;;;0.52;;
11646;SDS011;5880;52.342;9.662;2023-07-31T02:41:47;1.33;;;0.43;;
11646;SDS011;5880;52.342;9.662;2023-07-31T02:44:12;0.80;;;0.63;;
11646;SDS011;5880;52.342;9.662;2023-07-31T02:46:39;0.50;;;0.50;;
11646;SDS011;5880;52.342;9.662;2023-07-31T02:49:05;0.82;;;0.43;;
11646;SDS011;5880;52.342;9.662;2023-07-31T02:51:31;0.32;;;0.32;;
11646;SDS011;5880;52.342;9.662;2023-07-31T02:53:56;0.60;;;0.60;;
11646;SDS011;5880;52.342;9.662;2023-07-31T02:56:22;0.50;;;0.50;;
11646;SDS011;5880;52.342;9.662;2023-07-31T02:58:48;1.08;;;0.50;;
11646;SDS011;5880;52.342;9.662;2023-07-31T03:01:13;0.75;;;0.60;;
11646;SDS011;5880;52.342;9.662;2023-07-31T03:03:40;0.52;;;0.52;;
11646;SDS011;5880;52.342;9.662;2023-07-31T03:06:06;0.43;;;0.43;;
11646;SDS011;5880;52.342;9.662;2023-07-31T03:08:32;0.52;;;0.52;;
11646;SDS011;5880;52.342;9.662;2023-07-31T03:10:58;0.60;;;0.60;;
11646;SDS011;5880;52.342;9.662;2023-07-31T03:13:23;1.00;;;0.47;;
11646;SDS011;5880;52.342;9.662;2023-07-31T03:15:49;0.30;;;0.30;;
11646;SDS011;5880;52.342;9.662;2023-07-31T03:18:15;0.82;;;0.60;;
11646;SDS011;5880;52.342;9.662;2023-07-31T03:20:44;0.70;;;0.60;;
11646;SDS011;5880;52.342;9.662;2023-07-31T03:23:09;0.60;;;0.50;;
11646;SDS011;5880;52.342;9.662;2023-07-31T03:25:35;0.60;;;0.60;;
11646;SDS011;5880;52.342;9.662;2023-07-31T03:28:01;0.73;;;0.57;;
11646;SDS011;5880;52.342;9.662;2023-07-31T03:30:27;0.60;;;0.60;;
11646;SDS011;5880;52.342;9.662;2023-07-31T03:32:52;0.73;;;0.70;;
11646;SDS011;5880;52.342;9.662;2023-07-31T03:35:18;0.70;;;0.70;;
11646;SDS011;5880;52.342;9.662;2023-07-31T03:37:44;0.73;;;0.73;;
11646;SDS011;5880;52.342;9.662;2023-07-31T03:40:10;0.70;;;0.70;;
11646;SDS011;5880;52.342;9.662;2023-07-31T03:42:36;1.08;;;0.95;;
11646;SDS011;5880;52.342;9.662;2023-07-31T03:45:01;0.70;;;0.70;;
11646;SDS011;5880;52.342;9.662;2023-07-31T03:47:27;1.25;;;0.80;;
11646;SDS011;5880;52.342;9.662;2023-07-31T03:49:53;0.77;;;0.60;;
11646;SDS011;5880;52.342;9.662;2023-07-31T03:52:19;1.13;;;0.80;;
11646;SDS011;5880;52.342;9.662;2023-07-31T03:54:45;0.82;;;0.68;;
11646;SDS011;5880;52.342;9.662;2023-07-31T03:57:11;0.90;;;0.80;;
11646;SDS011;5880;52.342;9.662;2023-07-31T03:59:36;0.77;;;0.73;;
11646;SDS011;5880;52.342;9.662;2023-07-31T04:02:04;0.90;;;0.80;;
11646;SDS011;5880;52.342;9.662;2023-07-31T04:04:30;0.75;;;0.75;;
11646;SDS011;5880;52.342;9.662;2023-07-31T04:06:55;1.33;;;0.80;;
11646;SDS011;5880;52.342;9.662;2023-07-31T04:09:21;0.70;;;0.70;;
11646;SDS011;5880;52.342;9.662;2023-07-31T04:11:47;1.42;;;0.73;;
11646;SDS011;5880;52.342;9.662;2023-07-31T04:14:12;1.05;;;0.80;;
11646;SDS011;5880;52.342;9.662;2023-07-31T04:16:38;0.82;;;0.80;;
11646;SDS011;5880;52.342;9.662;2023-07-31T04:19:03;0.93;;;0.90;;
11646;SDS011;5880;52.342;9.662;2023-07-31T04:21:29;0.80;;;0.75;;
11646;SDS011;5880;52.342;9.662;2023-07-31T04:23:55;0.82;;;0.70;;
11646;SDS011;5880;52.342;9.662;2023-07-31T04:26:21;0.82;;;0.77;;
11646;SDS011;5880;52.342;9.662;2023-07-31T04:28:47;1.02;;;0.80;;
11646;SDS011;5880;52.342;9.662;2023-07-31T04:31:13;0.73;;;0.63;;
11646;SDS011;5880;52.342;9.662;2023-07-31T04:33:38;0.70;;;0.70;;
11646;SDS011;5880;52.342;9.662;2023-07-31T04:36:04;0.70;;;0.70;;
11646;SDS011;5880;52.342;9.662;2023-07-31T04:38:30;0.98;;;0.70;;
11646;SDS011;5880;52.342;9.662;2023-07-31T04:40:56;1.00;;;0.68;;
11646;SDS011;5880;52.342;9.662;2023-07-31T04:43:21;0.50;;;0.50;;
11646;SDS011;5880;52.342;9.662;2023-07-31T04:45:47;0.70;;;0.70;;
11646;SDS011;5880;52.342;9.662;2023-07-31T04:48:15;0.73;;;0.65;;
11646;SDS011;5880;52.342;9.662;2023-07-31T04:50:40;1.05;;;0.70;;
11646;SDS011;5880;52.342;9.662;2023-07-31T04:53:07;0.40;;;0.40;;
11646;SDS011;5880;52.342;9.662;2023-07-31T04:55:32;0.65;;;0.55;;
11646;SDS011;5880;52.342;9.662;2023-07-31T04:57:58;0.40;;;0.40;;
11646;SDS011;5880;52.342;9.662;2023-07-31T05:00:24;0.70;;;0.35;;
11646;SDS011;5880;52.342;9.662;2023-07-31T05:02:50;1.02;;;0.52;;
11646;SDS011;5880;52.342;9.662;2023-07-31T05:05:16;0.22;;;0.22;;
11646;SDS011;5880;52.342;9.662;2023-07-31T05:07:41;0.50;;;0.40;;
11646;SDS011;5880;52.342;9.662;2023-07-31T05:10:07;0.40;;;0.40;;
11646;SDS011;5880;52.342;9.662;2023-07-31T05:12:33;0.28;;;0.28;;
11646;SDS011;5880;52.342;9.662;2023-07-31T05:14:59;0.47;;;0.47;;
11646;SDS011;5880;52.342;9.662;2023-07-31T05:17:25;0.40;;;0.40;;
11646;SDS011;5880;52.342;9.662;2023-07-31T05:19:50;0.43;;;0.43;;
11646;SDS011;5880;52.342;9.662;2023-07-31T05:22:16;0.70;;;0.70;;
11646;SDS011;5880;52.342;9.662;2023-07-31T05:24:42;0.80;;;0.80;;
11646;SDS011;5880;52.342;9.662;2023-07-31T05:27:07;1.05;;;1.00;;
11646;SDS011;5880;52.342;9.662;2023-07-31T05:29:34;1.55;;;1.38;;
11646;SDS011;5880;52.342;9.662;2023-07-31T05:32:00;2.83;;;1.67;;
11646;SDS011;5880;52.342;9.662;2023-07-31T05:34:26;2.28;;;1.65;;
11646;SDS011;5880;52.342;9.662;2023-07-31T05:36:52;2.08;;;1.90;;
11646;SDS011;5880;52.342;9.662;2023-07-31T05:39:18;2.40;;;2.20;;
11646;SDS011;5880;52.342;9.662;2023-07-31T05:41:44;2.63;;;2.15;;
11646;SDS011;5880;52.342;9.662;2023-07-31T05:44:11;2.50;;;2.30;;
11646;SDS011;5880;52.342;9.662;2023-07-31T05:46:36;2.92;;;2.72;;
11646;SDS011;5880;52.342;9.662;2023-07-31T05:49:02;5.88;;;2.90;;
11646;SDS011;5880;52.342;9.662;2023-07-31T05:51:27;4.22;;;3.22;;
11646;SDS011;5880;52.342;9.662;2023-07-31T05:53:53;4.35;;;3.20;;
11646;SDS011;5880;52.342;9.662;2023-07-31T05:56:19;3.35;;;3.05;;
11646;SDS011;5880;52.342;9.662;2023-07-31T05:58:45;4.28;;;3.58;;
11646;SDS011;5880;52.342;9.662;2023-07-31T06:01:10;3.97;;;3.60;;
11646;SDS011;5880;52.342;9.662;2023-07-31T06:03:36;4.22;;;3.60;;
11646;SDS011;5880;52.342;9.662;2023-07-31T06:06:02;4.43;;;3.75;;
11646;SDS011;5880;52.342;9.662;2023-07-31T06:08:27;3.90;;;3.50;;
11646;SDS011;5880;52.342;9.662;2023-07-31T06:10:53;4.05;;;3.65;;
11646;SDS011;5880;52.342;9.662;2023-07-31T06:13:19;4.05;;;3.70;;
11646;SDS011;5880;52.342;9.662;2023-07-31T06:15:44;4.28;;;3.88;;
11646;SDS011;5880;52.342;9.662;2023-07-31T06:18:10;3.83;;;3.53;;
11646;SDS011;5880;52.342;9.662;2023-07-31T06:20:36;4.20;;;3.53;;
11646;SDS011;5880;52.342;9.662;2023-07-31T06:23:02;4.60;;;3.92;;
11646;SDS011;5880;52.342;9.662;2023-07-31T06:25:28;4.30;;;3.70;;
11646;SDS011;5880;52.342;9.662;2023-07-31T06:27:54;4.32;;;3.63;;
11646;SDS011;5880;52.342;9.662;2023-07-31T06:30:19;5.22;;;3.55;;
11646;SDS011;5880;52.342;9.662;2023-07-31T06:32:45;4.20;;;3.80;;
11646;SDS011;5880;52.342;9.662;2023-07-31T06:35:11;3.70;;;3.28;;
11646;SDS011;5880;52.342;9.662;2023-07-31T06:37:36;4.90;;;3.92;;
11646;SDS011;5880;52.342;9.662;2023-07-31T06:40:05;3.78;;;3.47;;
11646;SDS011;5880;52.342;9.662;2023-07-31T06:42:33;3.95;;;3.28;;
11646;SDS011;5880;52.342;9.662;2023-07-31T06:45:00;3.95;;;3.47;;
11646;SDS011;5880;52.342;9.662;2023-07-31T06:47:27;3.88;;;3.50;;
11646;SDS011;5880;52.342;9.662;2023-07-31T06:49:52;4.63;;;3.42;;
11646;SDS011;5880;52.342;9.662;2023-07-31T06:52:18;4.05;;;3.35;;
11646;SDS011;5880;52.342;9.662;2023-07-31T06:54:44;5.63;;;3.92;;
11646;SDS011;5880;52.342;9.662;2023-07-31T06:57:26;4.28;;;3.70;;
11646;SDS011;5880;52.342;9.662;2023-07-31T06:59:51;7.30;;;3.33;;
11646;SDS011;5880;52.342;9.662;2023-07-31T07:02:17;4.28;;;3.78;;
11646;SDS011;5880;52.342;9.662;2023-07-31T07:04:42;4.55;;;4.10;;
11646;SDS011;5880;52.342;9.662;2023-07-31T07:07:08;6.13;;;4.32;;
11646;SDS011;5880;52.342;9.662;2023-07-31T07:09:34;5.40;;;4.15;;
11646;SDS011;5880;52.342;9.662;2023-07-31T07:12:00;7.25;;;4.75;;
11646;SDS011;5880;52.342;9.662;2023-07-31T07:14:26;5.00;;;4.53;;
11646;SDS011;5880;52.342;9.662;2023-07-31T07:16:51;5.32;;;4.82;;
11646;SDS011;5880;52.342;9.662;2023-07-31T07:19:17;6.88;;;5.20;;
11646;SDS011;5880;52.342;9.662;2023-07-31T07:21:43;5.40;;;4.35;;
11646;SDS011;5880;52.342;9.662;2023-07-31T07:24:08;5.00;;;4.50;;
11646;SDS011;5880;52.342;9.662;2023-07-31T07:26:34;5.57;;;4.97;;
11646;SDS011;5880;52.342;9.662;2023-07-31T07:28:59;7.93;;;5.20;;
11646;SDS011;5880;52.342;9.662;2023-07-31T07:31:27;6.57;;;5.40;;
11646;SDS011;5880;52.342;9.662;2023-07-31T07:33:53;6.10;;;5.28;;
11646;SDS011;5880;52.342;9.662;2023-07-31T07:36:19;7.22;;;5.20;;
11646;SDS011;5880;52.342;9.662;2023-07-31T07:38:45;6.82;;;5.30;;
11646;SDS011;5880;52.342;9.662;2023-07-31T07:41:10;6.47;;;5.43;;
11646;SDS011;5880;52.342;9.662;2023-07-31T07:43:36;5.63;;;5.07;;
11646;SDS011;5880;52.342;9.662;2023-07-31T07:46:02;7.00;;;5.38;;
11646;SDS011;5880;52.342;9.662;2023-07-31T07:48:27;6.88;;;5.60;;
11646;SDS011;5880;52.342;9.662;2023-07-31T07:50:53;7.55;;;5.20;;
11646;SDS011;5880;52.342;9.662;2023-07-31T07:53:18;5.53;;;4.75;;
11646;SDS011;5880;52.342;9.662;2023-07-31T07:55:44;5.53;;;5.03;;
11646;SDS011;5880;52.342;9.662;2023-07-31T07:58:10;5.95;;;4.53;;
11646;SDS011;5880;52.342;9.662;2023-07-31T08:00:35;5.78;;;4.68;;
11646;SDS011;5880;52.342;9.662;2023-07-31T08:03:01;5.07;;;4.40;;
11646;SDS011;5880;52.342;9.662;2023-07-31T08:05:27;6.18;;;4.95;;
11646;SDS011;5880;52.342;9.662;2023-07-31T08:07:53;4.70;;;4.15;;
11646;SDS011;5880;52.342;9.662;2023-07-31T08:10:18;5.20;;;4.10;;
11646;SDS011;5880;52.342;9.662;2023-07-31T08:12:44;4.53;;;4.07;;
11646;SDS011;5880;52.342;9.662;2023-07-31T08:15:10;5.07;;;4.20;;
11646;SDS011;5880;52.342;9.662;2023-07-31T08:17:35;4.43;;;4.03;;
11646;SDS011;5880;52.342;9.662;2023-07-31T08:20:01;4.40;;;3.92;;
11646;SDS011;5880;52.342;9.662;2023-07-31T08:22:27;4.18;;;3.70;;
11646;SDS011;5880;52.342;9.662;2023-07-31T08:24:53;6.20;;;3.70;;
11646;SDS011;5880;52.342;9.662;2023-07-31T08:27:18;4.15;;;3.53;;
11646;SDS011;5880;52.342;9.662;2023-07-31T08:29:44;5.28;;;3.80;;
11646;SDS011;5880;52.342;9.662;2023-07-31T08:32:10;4.80;;;3.50;;
11646;SDS011;5880;52.342;9.662;2023-07-31T08:34:35;3.63;;;3.30;;
11646;SDS011;5880;52.342;9.662;2023-07-31T08:37:01;4.22;;;3.75;;
11646;SDS011;5880;52.342;9.662;2023-07-31T08:39:27;5.00;;;3.50;;
11646;SDS011;5880;52.342;9.662;2023-07-31T08:41:57;5.35;;;3.83;;
11646;SDS011;5880;52.342;9.662;2023-07-31T08:44:24;4.43;;;3.60;;
11646;SDS011;5880;52.342;9.662;2023-07-31T08:46:50;4.68;;;3.45;;
11646;SDS011;5880;52.342;9.662;2023-07-31T08:49:17;4.15;;;3.75;;
11646;SDS011;5880;52.342;9.662;2023-07-31T08:51:47;5.15;;;3.53;;
11646;SDS011;5880;52.342;9.662;2023-07-31T08:54:15;5.03;;;3.80;;
11646;SDS011;5880;52.342;9.662;2023-07-31T08:56:41;5.13;;;3.70;;
11646;SDS011;5880;52.342;9.662;2023-07-31T08:59:08;5.90;;;3.85;;
11646;SDS011;5880;52.342;9.662;2023-07-31T09:01:38;4.50;;;3.60;;
11646;SDS011;5880;52.342;9.662;2023-07-31T09:04:13;4.18;;;3.53;;
11646;SDS011;5880;52.342;9.662;2023-07-31T09:06:42;4.50;;;3.63;;
11646;SDS011;5880;52.342;9.662;2023-07-31T09:09:09;5.55;;;3.42;;
11646;SDS011;5880;52.342;9.662;2023-07-31T09:11:35;3.40;;;3.10;;
11646;SDS011;5880;52.342;9.662;2023-07-31T09:14:01;4.10;;;3.50;;
11646;SDS011;5880;52.342;9.662;2023-07-31T09:16:33;4.20;;;3.40;;
11646;SDS011;5880;52.342;9.662;2023-07-31T09:18:59;3.70;;;3.20;;
11646;SDS011;5880;52.342;9.662;2023-07-31T09:21:27;3.80;;;3.40;;
11646;SDS011;5880;52.342;9.662;2023-07-31T09:23:53;2.85;;;2.63;;
11646;SDS011;5880;52.342;9.662;2023-07-31T09:26:36;2.90;;;2.60;;
11646;SDS011;5880;52.342;9.662;2023-07-31T09:29:06;2.60;;;2.40;;
11646;SDS011;5880;52.342;9.662;2023-07-31T09:31:44;2.30;;;2.10;;
11646;SDS011;5880;52.342;9.662;2023-07-31T09:34:10;2.63;;;1.80;;
11646;SDS011;5880;52.342;9.662;2023-07-31T09:36:43;2.35;;;1.98;;
11646;SDS011;5880;52.342;9.662;2023-07-31T09:39:11;2.83;;;1.95;;
11646;SDS011;5880;52.342;9.662;2023-07-31T09:41:38;1.88;;;1.67;;
11646;SDS011;5880;52.342;9.662;2023-07-31T09:44:07;1.77;;;1.45;;
11646;SDS011;5880;52.342;9.662;2023-07-31T09:46:34;2.00;;;1.58;;
11646;SDS011;5880;52.342;9.662;2023-07-31T09:49:12;2.38;;;1.30;;
11646;SDS011;5880;52.342;9.662;2023-07-31T09:51:40;1.70;;;1.60;;
11646;SDS011;5880;52.342;9.662;2023-07-31T09:54:11;1.40;;;1.30;;
11646;SDS011;5880;52.342;9.662;2023-07-31T09:56:44;1.50;;;1.40;;
11646;SDS011;5880;52.342;9.662;2023-07-31T09:59:17;1.63;;;1.52;;
11646;SDS011;5880;52.342;9.662;2023-07-31T10:01:45;1.30;;;1.20;;
11646;SDS011;5880;52.342;9.662;2023-07-31T10:04:12;1.50;;;1.40;;
11646;SDS011;5880;52.342;9.662;2023-07-31T10:06:39;1.40;;;1.25;;
11646;SDS011;5880;52.342;9.662;2023-07-31T10:09:09;1.75;;;1.45;;
11646;SDS011;5880;52.342;9.662;2023-07-31T10:11:47;1.42;;;1.33;;
11646;SDS011;5880;52.342;9.662;2023-07-31T10:14:24;1.52;;;1.42;;
11646;SDS011;5880;52.342;9.662;2023-07-31T10:16:53;1.92;;;1.50;;
11646;SDS011;5880;52.342;9.662;2023-07-31T10:19:20;2.17;;;1.48;;
11646;SDS011;5880;52.342;9.662;2023-07-31T10:21:48;1.50;;;1.38;;
11646;SDS011;5880;52.342;9.662;2023-07-31T10:24:14;1.75;;;1.50;;
11646;SDS011;5880;52.342;9.662;2023-07-31T10:26:41;1.77;;;1.42;;
11646;SDS011;5880;52.342;9.662;2023-07-31T10:29:14;1.55;;;1.30;;
11646;SDS011;5880;52.342;9.662;2023-07-31T10:31:43;1.60;;;1.50;;
11646;SDS011;5880;52.342;9.662;2023-07-31T10:34:11;1.92;;;1.40;;
11646;SDS011;5880;52.342;9.662;2023-07-31T10:36:39;1.58;;;1.30;;
11646;SDS011;5880;52.342;9.662;2023-07-31T10:39:04;2.25;;;1.40;;
11646;SDS011;5880;52.342;9.662;2023-07-31T10:42:11;2.03;;;1.60;;
11646;SDS011;5880;52.342;9.662;2023-07-31T10:44:43;1.73;;;1.50;;
11646;SDS011;5880;52.342;9.662;2023-07-31T10:47:10;2.55;;;1.95;;
11646;SDS011;5880;52.342;9.662;2023-07-31T10:49:39;1.45;;;1.33;;
11646;SDS011;5880;52.342;9.662;2023-07-31T10:52:05;1.58;;;1.40;;
11646;SDS011;5880;52.342;9.662;2023-07-31T10:54:38;1.50;;;1.38;;
11646;SDS011;5880;52.342;9.662;2023-07-31T10:57:18;2.28;;;1.90;;
11646;SDS011;5880;52.342;9.662;2023-07-31T10:59:45;1.67;;;1.58;;
11646;SDS011;5880;52.342;9.662;2023-07-31T11:02:23;1.92;;;1.73;;
11646;SDS011;5880;52.342;9.662;2023-07-31T11:05:12;1.67;;;1.58;;
11646;SDS011;5880;52.342;9.662;2023-07-31T11:07:48;2.60;;;1.80;;
11646;SDS011;5880;52.342;9.662;2023-07-31T11:10:18;1.77;;;1.63;;
11646;SDS011;5880;52.342;9.662;2023-07-31T11:12:45;1.85;;;1.60;;
11646;SDS011;5880;52.342;9.662;2023-07-31T11:15:12;1.60;;;1.50;;
11646;SDS011;5880;52.342;9.662;2023-07-31T11:17:40;1.60;;;1.50;;
11646;SDS011;5880;52.342;9.662;2023-07-31T11:20:06;2.13;;;1.42;;
11646;SDS011;5880;52.342;9.662;2023-07-31T11:22:34;1.83;;;1.48;;
11646;SDS011;5880;52.342;9.662;2023-07-31T11:25:02;1.63;;;1.35;;
11646;SDS011;5880;52.342;9.662;2023-07-31T11:27:29;1.70;;;1.60;;
11646;SDS011;5880;52.342;9.662;2023-07-31T11:30:01;1.75;;;1.55;;
11646;SDS011;5880;52.342;9.662;2023-07-31T11:32:28;1.90;;;1.60;;
11646;SDS011;5880;52.342;9.662;2023-07-31T11:34:54;3.33;;;1.83;;
11646;SDS011;5880;52.342;9.662;2023-07-31T11:37:20;1.88;;;1.45;;
11646;SDS011;5880;52.342;9.662;2023-07-31T11:39:58;2.85;;;1.80;;
11646;SDS011;5880;52.342;9.662;2023-07-31T11:42:25;2.38;;;1.65;;
11646;SDS011;5880;52.342;9.662;2023-07-31T11:44:51;1.70;;;1.60;;
11646;SDS011;5880;52.342;9.662;2023-07-31T11:47:16;1.58;;;1.48;;
11646;SDS011;5880;52.342;9.662;2023-07-31T11:49:43;1.60;;;1.50;;
11646;SDS011;5880;52.342;9.662;2023-07-31T11:52:09;1.70;;;1.60;;
11646;SDS011;5880;52.342;9.662;2023-07-31T11:54:37;3.50;;;1.60;;
11646;SDS011;5880;52.342;9.662;2023-07-31T11:57:05;2.42;;;1.38;;
11646;SDS011;5880;52.342;9.662;2023-07-31T11:59:32;1.70;;;1.60;;
11646;SDS011;5880;52.342;9.662;2023-07-31T12:01:57;1.60;;;1.42;;
11646;SDS011;5880;52.342;9.662;2023-07-31T12:04:23;1.70;;;1.60;;
11646;SDS011;5880;52.342;9.662;2023-07-31T12:06:52;1.50;;;1.40;;
11646;SDS011;5880;52.342;9.662;2023-07-31T12:09:18;2.22;;;1.50;;
11646;SDS011;5880;52.342;9.662;2023-07-31T12:11:44;1.50;;;1.40;;
11646;SDS011;5880;52.342;9.662;2023-07-31T12:14:21;1.30;;;1.20;;
11646;SDS011;5880;52.342;9.662;2023-07-31T12:17:00;2.35;;;1.30;;
11646;SDS011;5880;52.342;9.662;2023-07-31T12:19:29;1.33;;;1.23;;
11646;SDS011;5880;52.342;9.662;2023-07-31T12:21:56;1.40;;;1.30;;
11646;SDS011;5880;52.342;9.662;2023-07-31T12:24:25;1.20;;;1.10;;
11646;SDS011;5880;52.342;9.662;2023-07-31T12:26:52;1.75;;;1.00;;
11646;SDS011;5880;52.342;9.662;2023-07-31T12:29:19;1.20;;;1.10;;
11646;SDS011;5880;52.342;9.662;2023-07-31T12:31:45;1.00;;;0.90;;
11646;SDS011;5880;52.342;9.662;2023-07-31T12:34:15;0.98;;;0.98;;
11646;SDS011;5880;52.342;9.662;2023-07-31T12:36:43;1.05;;;1.05;;
11646;SDS011;5880;52.342;9.662;2023-07-31T12:39:09;1.48;;;1.10;;
11646;SDS011;5880;52.342;9.662;2023-07-31T12:41:35;1.58;;;1.02;;
11646;SDS011;5880;52.342;9.662;2023-07-31T12:44:01;0.95;;;0.95;;
11646;SDS011;5880;52.342;9.662;2023-07-31T12:46:28;0.70;;;0.70;;
11646;SDS011;5880;52.342;9.662;2023-07-31T12:48:54;1.02;;;0.90;;
11646;SDS011;5880;52.342;9.662;2023-07-31T12:51:19;0.70;;;0.70;;
11646;SDS011;5880;52.342;9.662;2023-07-31T12:53:46;0.60;;;0.60;;
11646;SDS011;5880;52.342;9.662;2023-07-31T12:56:11;0.70;;;0.70;;
11646;SDS011;5880;52.342;9.662;2023-07-31T12:58:37;0.50;;;0.50;;
11646;SDS011;5880;52.342;9.662;2023-07-31T13:01:03;0.63;;;0.63;;
11646;SDS011;5880;52.342;9.662;2023-07-31T13:03:28;0.80;;;0.70;;
11646;SDS011;5880;52.342;9.662;2023-07-31T13:05:54;0.63;;;0.63;;
11646;SDS011;5880;52.342;9.662;2023-07-31T13:08:20;0.52;;;0.52;;
11646;SDS011;5880;52.342;9.662;2023-07-31T13:10:46;1.02;;;0.70;;
11646;SDS011;5880;52.342;9.662;2023-07-31T13:13:11;0.70;;;0.70;;
11646;SDS011;5880;52.342;9.662;2023-07-31T13:15:37;0.77;;;0.77;;
11646;SDS011;5880;52.342;9.662;2023-07-31T13:18:03;0.60;;;0.60;;
11646;SDS011;5880;52.342;9.662;2023-07-31T13:20:29;0.80;;;0.70;;
11646;SDS011;5880;52.342;9.662;2023-07-31T13:22:54;2.15;;;0.70;;
11646;SDS011;5880;52.342;9.662;2023-07-31T13:25:20;1.58;;;0.80;;
11646;SDS011;5880;52.342;9.662;2023-07-31T13:27:46;0.80;;;0.80;;
11646;SDS011;5880;52.342;9.662;2023-07-31T13:30:11;0.80;;;0.80;;
11646;SDS011;5880;52.342;9.662;2023-07-31T13:32:37;0.75;;;0.75;;
11646;SDS011;5880;52.342;9.662;2023-07-31T13:35:04;0.80;;;0.80;;
11646;SDS011;5880;52.342;9.662;2023-07-31T13:37:34;0.80;;;0.80;;
11646;SDS011;5880;52.342;9.662;2023-07-31T13:40:00;0.95;;;0.85;;
11646;SDS011;5880;52.342;9.662;2023-07-31T13:42:26;0.77;;;0.77;;
11646;SDS011;5880;52.342;9.662;2023-07-31T13:44:53;0.60;;;0.60;;
11646;SDS011;5880;52.342;9.662;2023-07-31T13:47:21;0.65;;;0.65;;
11646;SDS011;5880;52.342;9.662;2023-07-31T13:49:46;0.90;;;0.90;;
11646;SDS011;5880;52.342;9.662;2023-07-31T13:52:12;0.50;;;0.50;;
11646;SDS011;5880;52.342;9.662;2023-07-31T13:54:38;0.60;;;0.60;;
11646;SDS011;5880;52.342;9.662;2023-07-31T13:57:03;0.65;;;0.65;;
11646;SDS011;5880;52.342;9.662;2023-07-31T13:59:30;1.15;;;0.60;;
11646;SDS011;5880;52.342;9.662;2023-07-31T14:01:55;0.60;;;0.60;;
11646;SDS011;5880;52.342;9.662;2023-07-31T14:04:21;0.85;;;0.70;;
11646;SDS011;5880;52.342;9.662;2023-07-31T14:06:47;0.68;;;0.68;;
11646;SDS011;5880;52.342;9.662;2023-07-31T14:09:15;0.50;;;0.50;;
11646;SDS011;5880;52.342;9.662;2023-07-31T14:11:42;0.80;;;0.80;;
11646;SDS011;5880;52.342;9.662;2023-07-31T14:14:08;0.65;;;0.60;;
11646;SDS011;5880;52.342;9.662;2023-07-31T14:16:35;0.80;;;0.80;;
11646;SDS011;5880;52.342;9.662;2023-07-31T14:19:01;0.63;;;0.63;;
11646;SDS011;5880;52.342;9.662;2023-07-31T14:21:26;1.20;;;0.80;;
11646;SDS011;5880;52.342;9.662;2023-07-31T14:23:52;0.63;;;0.60;;
11646;SDS011;5880;52.342;9.662;2023-07-31T14:26:18;0.75;;;0.70;;
11646;SDS011;5880;52.342;9.662;2023-07-31T14:28:44;0.90;;;0.90;;
11646;SDS011;5880;52.342;9.662;2023-07-31T14:31:09;0.98;;;0.98;;
11646;SDS011;5880;52.342;9.662;2023-07-31T14:33:35;1.02;;;1.02;;
11646;SDS011;5880;52.342;9.662;2023-07-31T14:36:01;1.20;;;1.10;;
11646;SDS011;5880;52.342;9.662;2023-07-31T14:38:27;1.10;;;1.10;;
11646;SDS011;5880;52.342;9.662;2023-07-31T14:40:52;1.40;;;1.30;;
11646;SDS011;5880;52.342;9.662;2023-07-31T14:43:18;1.30;;;1.10;;
11646;SDS011;5880;52.342;9.662;2023-07-31T14:45:44;1.40;;;1.30;;
11646;SDS011;5880;52.342;9.662;2023-07-31T14:48:11;1.60;;;1.48;;
11646;SDS011;5880;52.342;9.662;2023-07-31T14:50:37;1.55;;;1.45;;
11646;SDS011;5880;52.342;9.662;2023-07-31T14:53:03;1.80;;;1.70;;
11646;SDS011;5880;52.342;9.662;2023-07-31T14:55:28;1.80;;;1.70;;
11646;SDS011;5880;52.342;9.662;2023-07-31T14:57:54;2.42;;;1.55;;
11646;SDS011;5880;52.342;9.662;2023-07-31T15:00:19;1.58;;;1.48;;
11646;SDS011;5880;52.342;9.662;2023-07-31T15:02:46;1.88;;;1.73;;
11646;SDS011;5880;52.342;9.662;2023-07-31T15:05:11;1.98;;;1.88;;
11646;SDS011;5880;52.342;9.662;2023-07-31T15:07:37;2.30;;;1.90;;
11646;SDS011;5880;52.342;9.662;2023-07-31T15:10:03;1.90;;;1.80;;
11646;SDS011;5880;52.342;9.662;2023-07-31T15:12:30;2.05;;;1.70;;